Time;durP1;ratioP1;P1;durP2;ratioP2;P2;SDS_P1;SDS_P2;PMS_P1;PMS_P2;Temp;Humidity;BMP_temperature;BMP_pressure;BME280_temperature;BME280_humidity;BME280_pressure;Samples;Min_cycle;Max_cycle;Signal;HPM_P1;HPM_P2
2024/02/23 00:02:15;;;;;;;2.10;1.17;;;10.00;99.90;;;;;;5026934;28;20529;-48
2024/02/23 00:04:42;;;;;;;1.20;1.10;;;10.00;99.90;;;;;;5010719;28;20038;-46
2024/02/23 00:07:09;;;;;;;2.45;1.25;;;9.90;99.90;;;;;;5029054;28;20141;-48
2024/02/23 00:09:36;;;;;;;1.30;1.20;;;9.90;99.90;;;;;;5027448;28;20151;-46
2024/02/23 00:12:03;;;;;;;4.25;1.38;;;9.90;99.90;;;;;;5024567;28;20044;-50
2024/02/23 00:14:31;;;;;;;1.40;1.25;;;9.80;99.90;;;;;;5026869;28;20119;-46
2024/02/23 00:16:58;;;;;;;1.42;1.20;;;9.80;99.90;;;;;;5028301;28;20503;-47
2024/02/23 00:19:25;;;;;;;2.63;1.20;;;9.70;99.90;;;;;;5026764;28;20103;-48
2024/02/23 00:21:53;;;;;;;1.95;1.10;;;9.80;99.90;;;;;;5027361;28;20145;-49
2024/02/23 00:24:20;;;;;;;2.55;1.23;;;9.70;99.90;;;;;;5026178;28;20128;-47
2024/02/23 00:26:49;;;;;;;1.58;1.10;;;9.70;99.90;;;;;;5027243;28;20509;-52
2024/02/23 00:29:15;;;;;;;2.25;1.20;;;9.60;99.90;;;;;;5027664;28;20156;-47
2024/02/23 00:31:45;;;;;;;1.25;1.10;;;9.70;99.90;;;;;;5030090;28;20041;-51
2024/02/23 00:34:13;;;;;;;1.70;1.27;;;9.60;99.90;;;;;;5031304;28;20129;-52
2024/02/23 00:36:41;;;;;;;1.38;1.10;;;9.40;99.90;;;;;;5035230;28;20045;-53
2024/02/23 00:39:08;;;;;;;2.00;1.30;;;9.50;99.90;;;;;;5031875;28;20112;-46
2024/02/23 00:41:36;;;;;;;1.30;1.20;;;9.40;99.90;;;;;;5027585;28;20121;-50
2024/02/23 00:44:03;;;;;;;1.20;1.10;;;9.40;99.90;;;;;;5033283;28;20484;-50
2024/02/23 00:46:30;;;;;;;1.23;1.13;;;9.30;99.90;;;;;;5036804;28;20076;-49
2024/02/23 00:48:57;;;;;;;1.95;1.45;;;9.30;99.90;;;;;;5033878;28;20045;-46
2024/02/23 00:51:24;;;;;;;1.30;1.20;;;9.20;99.90;;;;;;5033011;28;20096;-46
2024/02/23 00:53:51;;;;;;;1.50;1.20;;;9.10;99.90;;;;;;5036424;28;20040;-45
2024/02/23 00:56:18;;;;;;;1.52;1.20;;;9.00;99.90;;;;;;5029739;28;20115;-47
2024/02/23 00:58:49;;;;;;;1.35;1.20;;;9.00;99.90;;;;;;5031379;28;20487;-49
2024/02/23 01:01:16;;;;;;;2.45;1.40;;;8.90;99.90;;;;;;5030106;28;20480;-50
2024/02/23 01:03:43;;;;;;;2.05;1.25;;;8.80;99.90;;;;;;5030922;28;20059;-43
2024/02/23 01:06:10;;;;;;;1.42;1.30;;;8.70;99.90;;;;;;5030784;28;20053;-46
2024/02/23 01:08:37;;;;;;;1.90;1.50;;;8.60;99.90;;;;;;5031417;28;20621;-47
2024/02/23 01:11:04;;;;;;;1.50;1.40;;;8.50;99.90;;;;;;5032070;28;20045;-47
2024/02/23 01:13:31;;;;;;;2.95;1.48;;;8.40;99.90;;;;;;5036356;28;20038;-48
2024/02/23 01:15:58;;;;;;;1.45;1.35;;;8.30;99.90;;;;;;5037411;28;20140;-44
2024/02/23 01:18:25;;;;;;;1.50;1.40;;;8.20;99.90;;;;;;5030468;28;20128;-49
2024/02/23 01:20:52;;;;;;;1.65;1.40;;;8.20;99.90;;;;;;5030072;28;20065;-48
2024/02/23 01:23:19;;;;;;;1.42;1.30;;;8.20;99.90;;;;;;5029991;28;20521;-53
2024/02/23 01:25:46;;;;;;;1.95;1.30;;;8.20;99.90;;;;;;5030098;28;20045;-49
2024/02/23 01:28:12;;;;;;;2.08;1.60;;;8.10;99.90;;;;;;5028556;28;20120;-46
2024/02/23 01:30:39;;;;;;;2.67;1.30;;;8.00;99.90;;;;;;5029689;28;20052;-42
2024/02/23 01:33:06;;;;;;;1.98;1.50;;;8.00;99.90;;;;;;5029265;28;20106;-47
2024/02/23 01:35:33;;;;;;;2.92;1.60;;;7.90;99.90;;;;;;5029307;28;20576;-48
2024/02/23 01:38:01;;;;;;;1.95;1.48;;;7.90;99.90;;;;;;5028506;28;20059;-47
2024/02/23 01:40:28;;;;;;;1.67;1.40;;;7.90;99.90;;;;;;5027121;28;20529;-44
2024/02/23 01:43:05;;;;;;;3.47;1.50;;;7.80;99.90;;;;;;5028883;28;20107;-52
2024/02/23 01:45:32;;;;;;;2.67;1.45;;;7.80;99.90;;;;;;5021567;28;20055;-51
2024/02/23 01:48:00;;;;;;;2.72;1.50;;;7.70;99.90;;;;;;5028853;28;20120;-47
2024/02/23 01:50:27;;;;;;;2.60;1.50;;;7.70;99.90;;;;;;5028068;28;20049;-47
2024/02/23 01:52:59;;;;;;;1.90;1.50;;;7.70;99.90;;;;;;5031360;28;20044;-48
2024/02/23 01:55:25;;;;;;;2.00;1.40;;;7.60;99.90;;;;;;5026616;28;21050;-49
2024/02/23 01:57:53;;;;;;;3.65;1.63;;;7.60;99.90;;;;;;5010677;28;20124;-45
2024/02/23 02:00:20;;;;;;;2.30;1.50;;;7.50;99.90;;;;;;5028447;28;20042;-47
2024/02/23 02:02:54;;;;;;;1.55;1.40;;;7.50;99.90;;;;;;5009263;28;20045;-44
2024/02/23 02:05:21;;;;;;;3.22;1.50;;;7.50;99.90;;;;;;5028055;28;20447;-46
2024/02/23 02:07:53;;;;;;;3.92;1.55;;;7.40;99.90;;;;;;5027709;28;20037;-47
2024/02/23 02:10:21;;;;;;;2.50;1.40;;;7.40;99.90;;;;;;5029561;28;20083;-46
2024/02/23 02:12:48;;;;;;;2.58;1.38;;;7.40;99.90;;;;;;5027868;28;20289;-50
2024/02/23 02:15:15;;;;;;;2.55;1.45;;;7.40;99.90;;;;;;5025371;28;20064;-46
2024/02/23 02:17:42;;;;;;;4.47;1.55;;;7.30;99.90;;;;;;5026203;28;20238;-47
2024/02/23 02:20:13;;;;;;;4.00;1.88;;;7.30;99.90;;;;;;5027405;28;20053;-48
2024/02/23 02:22:40;;;;;;;3.92;1.50;;;7.30;99.90;;;;;;5027771;28;20506;-46
2024/02/23 02:25:07;;;;;;;1.85;1.60;;;7.30;99.90;;;;;;5027647;28;20383;-44
2024/02/23 02:27:34;;;;;;;1.40;1.30;;;7.30;99.90;;;;;;5026859;28;20133;-43
2024/02/23 02:30:01;;;;;;;2.25;1.40;;;7.20;99.90;;;;;;5028449;28;20136;-49
2024/02/23 02:32:28;;;;;;;4.22;1.40;;;7.20;99.90;;;;;;5027771;28;20414;-44
2024/02/23 02:34:57;;;;;;;1.40;1.30;;;7.20;99.90;;;;;;5022994;28;20077;-44
2024/02/23 02:37:24;;;;;;;2.92;1.50;;;7.20;99.90;;;;;;5026324;28;20038;-42
2024/02/23 02:39:52;;;;;;;3.58;1.23;;;7.30;99.90;;;;;;5026577;28;20411;-51
2024/02/23 02:42:19;;;;;;;1.70;1.40;;;7.20;99.90;;;;;;5026274;28;20478;-49
2024/02/23 02:44:45;;;;;;;1.67;1.23;;;7.20;99.90;;;;;;5027281;28;20422;-46
2024/02/23 02:47:12;;;;;;;2.70;1.60;;;7.10;99.90;;;;;;5026737;28;20053;-50
2024/02/23 02:49:40;;;;;;;3.00;1.33;;;7.10;99.90;;;;;;5026735;28;20049;-52
2024/02/23 02:52:08;;;;;;;2.67;1.40;;;7.10;99.90;;;;;;5031283;28;20456;-48
2024/02/23 02:54:35;;;;;;;5.18;1.45;;;7.10;99.90;;;;;;5035524;28;20069;-48
2024/02/23 02:57:02;;;;;;;2.38;1.30;;;7.10;99.90;;;;;;5032222;28;20128;-49
2024/02/23 02:59:29;;;;;;;4.75;1.42;;;7.00;99.90;;;;;;5030698;28;20056;-47
2024/02/23 03:01:57;;;;;;;3.40;1.52;;;7.00;99.90;;;;;;5029693;28;20068;-52
2024/02/23 03:04:24;;;;;;;2.85;1.38;;;7.00;99.90;;;;;;5033352;28;20095;-50
2024/02/23 03:06:51;;;;;;;4.53;1.50;;;6.90;99.90;;;;;;5032362;28;20096;-46
2024/02/23 03:09:18;;;;;;;4.93;1.52;;;6.90;99.90;;;;;;5029374;28;20123;-51
2024/02/23 03:11:45;;;;;;;2.55;1.50;;;6.90;99.90;;;;;;5031873;28;20077;-55
2024/02/23 03:14:12;;;;;;;2.47;1.35;;;6.80;99.90;;;;;;5028792;28;20103;-51
2024/02/23 03:16:39;;;;;;;2.55;1.40;;;6.80;99.90;;;;;;5029912;28;20053;-48
2024/02/23 03:19:07;;;;;;;2.70;1.50;;;6.80;99.90;;;;;;5029975;28;20033;-51
2024/02/23 03:21:35;;;;;;;5.57;1.60;;;6.80;99.90;;;;;;5028895;28;20076;-50
2024/02/23 03:24:05;;;;;;;7.40;1.90;;;6.80;99.90;;;;;;5007069;28;20061;-51
2024/02/23 03:26:33;;;;;;;3.40;1.65;;;6.70;99.90;;;;;;5027815;28;20071;-51
2024/02/23 03:29:00;;;;;;;3.75;1.65;;;6.70;99.90;;;;;;5026245;28;20053;-53
2024/02/23 03:31:27;;;;;;;4.82;1.70;;;6.70;99.90;;;;;;5025934;28;20060;-47
2024/02/23 03:33:54;;;;;;;4.50;1.70;;;6.70;99.90;;;;;;5026048;28;20309;-42
2024/02/23 03:36:21;;;;;;;4.15;1.70;;;6.60;99.90;;;;;;5027020;28;20513;-49
2024/02/23 03:38:48;;;;;;;4.57;1.73;;;6.70;99.90;;;;;;5025358;28;20042;-47
2024/02/23 03:41:15;;;;;;;2.75;1.83;;;6.70;99.90;;;;;;5025921;28;20204;-50
2024/02/23 03:43:42;;;;;;;8.48;2.42;;;6.70;99.90;;;;;;5025789;28;20049;-50
2024/02/23 03:46:09;;;;;;;5.20;1.70;;;6.70;99.90;;;;;;5025423;28;20037;-51
2024/02/23 03:48:36;;;;;;;4.35;1.67;;;6.70;99.90;;;;;;5027367;28;20124;-44
2024/02/23 03:51:08;;;;;;;6.40;2.00;;;6.60;99.90;;;;;;5025680;28;20050;-47
2024/02/23 03:53:35;;;;;;;4.18;1.70;;;6.60;99.90;;;;;;5030706;28;20048;-50
2024/02/23 03:56:02;;;;;;;5.00;1.60;;;6.60;99.90;;;;;;5025003;28;20041;-46
2024/02/23 03:58:29;;;;;;;3.78;1.80;;;6.60;99.90;;;;;;5025538;28;20136;-49
2024/02/23 04:00:55;;;;;;;4.45;1.95;;;6.60;99.90;;;;;;5025318;28;20056;-48
2024/02/23 04:03:22;;;;;;;4.95;1.90;;;6.60;99.90;;;;;;5025475;28;20141;-48
2024/02/23 04:05:49;;;;;;;6.70;1.90;;;6.60;99.90;;;;;;5025683;28;20045;-44
2024/02/23 04:08:16;;;;;;;3.35;1.77;;;6.50;99.90;;;;;;5024662;28;20216;-43
2024/02/23 04:10:43;;;;;;;4.25;1.85;;;6.50;99.90;;;;;;5027588;28;20447;-42
2024/02/23 04:13:13;;;;;;;4.55;1.67;;;6.50;99.90;;;;;;5024597;28;20316;-48
2024/02/23 04:15:40;;;;;;;9.02;2.15;;;6.50;99.90;;;;;;5028023;28;20061;-48
2024/02/23 04:18:07;;;;;;;4.85;1.70;;;6.50;99.90;;;;;;5025299;28;20120;-45
2024/02/23 04:20:34;;;;;;;7.30;1.85;;;6.50;99.90;;;;;;5029153;28;20133;-49
2024/02/23 04:23:01;;;;;;;4.15;2.15;;;6.50;99.90;;;;;;5029912;28;20037;-44
2024/02/23 04:25:28;;;;;;;5.05;1.90;;;6.40;99.90;;;;;;5027732;28;20057;-48
2024/02/23 04:27:55;;;;;;;3.92;1.80;;;6.40;99.90;;;;;;5006894;28;20152;-42
2024/02/23 04:30:22;;;;;;;3.85;1.80;;;6.40;99.90;;;;;;5030680;28;20060;-46
2024/02/23 04:32:49;;;;;;;6.05;1.70;;;6.40;99.90;;;;;;5031446;28;20073;-49
2024/02/23 04:35:16;;;;;;;4.53;1.90;;;6.40;99.90;;;;;;5030904;28;20050;-43
2024/02/23 04:37:46;;;;;;;4.57;1.60;;;6.40;99.90;;;;;;5031482;28;20045;-52
2024/02/23 04:40:13;;;;;;;6.25;1.73;;;6.30;99.90;;;;;;5030584;28;20133;-53
2024/02/23 04:42:39;;;;;;;7.80;2.17;;;6.30;99.90;;;;;;5031097;28;20124;-48
2024/02/23 04:45:07;;;;;;;5.47;2.08;;;6.30;99.90;;;;;;5013432;28;20468;-50
2024/02/23 04:47:34;;;;;;;8.45;1.98;;;6.30;99.90;;;;;;5012743;28;20520;-44
2024/02/23 04:50:03;;;;;;;4.80;2.10;;;6.30;99.90;;;;;;5027986;28;20072;-50
2024/02/23 04:52:30;;;;;;;3.05;1.80;;;6.30;99.90;;;;;;5009401;28;20065;-45
2024/02/23 04:54:57;;;;;;;5.60;1.95;;;6.30;99.90;;;;;;5028598;28;20557;-51
2024/02/23 04:57:24;;;;;;;5.88;1.88;;;6.20;99.90;;;;;;5025961;28;20042;-50
2024/02/23 04:59:51;;;;;;;5.50;2.10;;;6.20;99.90;;;;;;5026257;28;20136;-48
2024/02/23 05:02:18;;;;;;;8.50;2.10;;;6.20;99.90;;;;;;5024255;28;20397;-46
2024/02/23 05:04:46;;;;;;;5.55;2.00;;;6.30;99.90;;;;;;5026009;28;20049;-46
2024/02/23 05:07:13;;;;;;;4.45;2.42;;;6.20;99.90;;;;;;5025920;28;20046;-50
2024/02/23 05:09:40;;;;;;;5.40;2.20;;;6.20;99.90;;;;;;5027441;28;20068;-43
2024/02/23 05:12:10;;;;;;;7.28;2.25;;;6.20;99.90;;;;;;5027730;28;20088;-45
2024/02/23 05:14:37;;;;;;;4.38;1.80;;;6.20;99.90;;;;;;5030771;28;20038;-44
2024/02/23 05:17:04;;;;;;;8.90;2.30;;;6.20;99.90;;;;;;5030534;28;20050;-49
2024/02/23 05:19:31;;;;;;;7.75;2.08;;;6.20;99.90;;;;;;5029382;28;20393;-47
2024/02/23 05:21:58;;;;;;;9.20;2.38;;;6.10;99.90;;;;;;5031535;28;20056;-47
2024/02/23 05:24:26;;;;;;;6.45;1.98;;;6.10;99.90;;;;;;5029114;28;20049;-46
2024/02/23 05:26:53;;;;;;;4.20;1.95;;;6.10;99.90;;;;;;5028028;28;20054;-47
2024/02/23 05:29:22;;;;;;;4.60;2.20;;;6.10;99.90;;;;;;5029599;28;20064;-44
2024/02/23 05:31:53;;;;;;;6.18;2.00;;;6.10;99.90;;;;;;5013392;28;20140;-46
2024/02/23 05:34:20;;;;;;;6.07;1.90;;;6.00;99.90;;;;;;5031490;28;20079;-49
2024/02/23 05:36:47;;;;;;;5.28;2.00;;;6.00;99.90;;;;;;5024180;28;20048;-46
2024/02/23 05:39:18;;;;;;;3.45;1.90;;;6.00;99.90;;;;;;5027823;28;20121;-44
2024/02/23 05:41:45;;;;;;;3.35;1.92;;;5.90;99.90;;;;;;5028829;28;20099;-45
2024/02/23 05:44:13;;;;;;;6.22;2.00;;;5.90;99.90;;;;;;5027922;28;20158;-49
2024/02/23 05:46:42;;;;;;;4.50;2.10;;;5.90;99.90;;;;;;5028250;28;20096;-46
2024/02/23 05:49:09;;;;;;;7.05;2.28;;;5.90;99.90;;;;;;5029845;28;20533;-51
2024/02/23 05:51:36;;;;;;;6.47;2.13;;;5.90;99.90;;;;;;5028837;28;20313;-49
2024/02/23 05:54:03;;;;;;;4.57;2.13;;;6.00;99.90;;;;;;5031036;28;20055;-51
2024/02/23 05:56:30;;;;;;;10.88;2.10;;;5.90;99.90;;;;;;5027108;28;20041;-45
2024/02/23 05:58:57;;;;;;;4.15;2.00;;;5.90;99.90;;;;;;5023803;28;20120;-49
2024/02/23 06:01:24;;;;;;;6.03;1.90;;;5.90;99.90;;;;;;5021647;28;20076;-46
2024/02/23 06:03:53;;;;;;;2.78;1.90;;;5.90;99.90;;;;;;5032145;28;20049;-50
2024/02/23 06:06:20;;;;;;;5.18;2.17;;;5.80;99.90;;;;;;5028634;28;20103;-46
2024/02/23 06:08:49;;;;;;;5.93;2.13;;;5.80;99.90;;;;;;5029068;28;20057;-51
2024/02/23 06:11:16;;;;;;;4.43;2.03;;;5.80;99.90;;;;;;5027800;28;20554;-45
2024/02/23 06:13:43;;;;;;;3.80;2.15;;;5.70;99.90;;;;;;5027422;28;20193;-44
2024/02/23 06:16:11;;;;;;;5.93;2.25;;;5.70;99.90;;;;;;5027292;28;20049;-45
2024/02/23 06:18:41;;;;;;;6.30;2.10;;;5.70;99.90;;;;;;5026732;28;20133;-48
2024/02/23 06:21:12;;;;;;;4.10;2.10;;;5.70;99.90;;;;;;5026428;28;20057;-49
2024/02/23 06:23:40;;;;;;;6.25;2.40;;;5.80;99.90;;;;;;5028246;28;20049;-50
2024/02/23 06:26:07;;;;;;;4.55;2.38;;;5.80;99.90;;;;;;5027499;28;20461;-46
2024/02/23 06:28:34;;;;;;;8.82;2.35;;;5.80;99.90;;;;;;5024016;28;20073;-50
2024/02/23 06:31:03;;;;;;;4.85;2.22;;;5.80;99.90;;;;;;5026751;28;20463;-48
2024/02/23 06:33:31;;;;;;;3.40;2.33;;;5.90;99.90;;;;;;5027954;28;20115;-49
2024/02/23 06:35:58;;;;;;;4.38;2.17;;;5.90;99.90;;;;;;5022025;28;20069;-48
2024/02/23 06:38:25;;;;;;;6.65;2.03;;;5.90;99.90;;;;;;5027805;28;20168;-47
2024/02/23 06:40:52;;;;;;;7.88;2.22;;;5.90;99.90;;;;;;5026955;28;20513;-47
2024/02/23 06:43:19;;;;;;;4.80;2.30;;;5.90;99.90;;;;;;5026240;28;20041;-50
2024/02/23 06:45:49;;;;;;;7.55;2.70;;;5.80;99.90;;;;;;5027470;28;20422;-43
2024/02/23 06:48:16;;;;;;;4.60;2.05;;;5.80;99.90;;;;;;5027618;28;20051;-50
2024/02/23 06:50:43;;;;;;;8.52;2.25;;;5.80;99.90;;;;;;5028230;28;20052;-52
2024/02/23 06:53:10;;;;;;;4.97;1.95;;;5.80;99.90;;;;;;5029209;28;20453;-50
2024/02/23 06:55:37;;;;;;;5.28;2.35;;;5.70;99.90;;;;;;5028090;28;20038;-46
2024/02/23 06:58:06;;;;;;;9.60;2.45;;;5.80;99.90;;;;;;5027494;28;20073;-50
2024/02/23 07:00:33;;;;;;;6.15;2.33;;;5.80;99.90;;;;;;5026166;28;20053;-48
2024/02/23 07:03:03;;;;;;;4.43;2.15;;;5.70;99.90;;;;;;5024709;28;20111;-50
2024/02/23 07:05:30;;;;;;;7.72;2.22;;;5.80;99.90;;;;;;5027099;28;20041;-49
2024/02/23 07:07:58;;;;;;;6.90;2.22;;;5.80;99.90;;;;;;5026781;28;20049;-52
2024/02/23 07:10:25;;;;;;;11.07;3.38;;;5.80;99.90;;;;;;5024914;28;20041;-50
2024/02/23 07:12:58;;;;;;;6.82;2.67;;;5.90;99.90;;;;;;5025562;28;20403;-48
2024/02/23 07:15:25;;;;;;;6.05;2.47;;;6.00;99.90;;;;;;5032204;28;20509;-47
2024/02/23 07:17:53;;;;;;;4.70;2.25;;;6.00;99.90;;;;;;5027352;28;20098;-50
2024/02/23 07:20:20;;;;;;;6.10;2.80;;;6.00;99.90;;;;;;5026896;28;20049;-52
2024/02/23 07:22:47;;;;;;;8.38;2.10;;;6.00;99.90;;;;;;5022342;28;20046;-49
2024/02/23 07:25:18;;;;;;;4.88;2.65;;;6.00;99.90;;;;;;5026753;28;20116;-52
2024/02/23 07:27:45;;;;;;;5.13;2.72;;;6.10;99.90;;;;;;5028243;28;20144;-47
2024/02/23 07:30:12;;;;;;;3.35;1.92;;;6.10;99.90;;;;;;5026630;28;20124;-49
2024/02/23 07:32:40;;;;;;;5.05;2.30;;;6.20;99.90;;;;;;5027323;28;20055;-48
2024/02/23 07:35:08;;;;;;;9.25;2.13;;;6.20;99.90;;;;;;5026253;28;20049;-49
2024/02/23 07:37:36;;;;;;;7.22;2.28;;;6.20;99.90;;;;;;5026635;28;20045;-48
2024/02/23 07:40:04;;;;;;;5.35;1.90;;;6.20;99.90;;;;;;5026703;28;20383;-56
2024/02/23 07:42:32;;;;;;;8.30;2.20;;;6.20;99.90;;;;;;5026648;28;20045;-50
2024/02/23 07:44:59;;;;;;;6.50;2.25;;;6.20;99.90;;;;;;5027901;28;20049;-45
2024/02/23 07:47:29;;;;;;;2.67;1.80;;;6.20;99.90;;;;;;5027048;28;20136;-48
2024/02/23 07:49:57;;;;;;;5.38;1.90;;;6.30;99.90;;;;;;5026927;28;20049;-50
2024/02/23 07:52:25;;;;;;;4.75;2.15;;;6.30;99.90;;;;;;5026552;28;20049;-44
2024/02/23 07:54:52;;;;;;;5.15;2.10;;;6.20;99.90;;;;;;5026349;28;20046;-48
2024/02/23 07:57:20;;;;;;;10.32;4.80;;;6.20;99.90;;;;;;5025864;28;20157;-43
2024/02/23 07:59:47;;;;;;;6.72;2.58;;;6.20;99.90;;;;;;5024106;28;20136;-46
2024/02/23 08:02:15;;;;;;;3.70;1.75;;;6.20;99.90;;;;;;5026037;28;20045;-50
2024/02/23 08:04:42;;;;;;;5.38;2.10;;;6.20;99.90;;;;;;5024922;28;20056;-46
2024/02/23 08:07:09;;;;;;;3.75;2.10;;;6.30;99.90;;;;;;5027322;28;20049;-44
2024/02/23 08:09:37;;;;;;;3.40;2.03;;;6.40;99.90;;;;;;5028007;28;20076;-51
2024/02/23 08:12:04;;;;;;;3.58;1.90;;;6.30;99.90;;;;;;5026693;28;20045;-47
2024/02/23 08:14:32;;;;;;;3.30;1.80;;;6.40;99.90;;;;;;5030740;28;20048;-49
2024/02/23 08:16:59;;;;;;;6.07;1.95;;;6.40;99.90;;;;;;5030093;28;20064;-48
2024/02/23 08:19:26;;;;;;;2.92;1.85;;;6.50;99.90;;;;;;5027845;28;20050;-51
2024/02/23 08:21:53;;;;;;;5.57;2.10;;;6.40;99.90;;;;;;5026740;28;20490;-52
2024/02/23 08:24:20;;;;;;;4.75;2.08;;;6.50;99.90;;;;;;5028133;28;20518;-50
2024/02/23 08:26:48;;;;;;;3.08;1.75;;;6.50;99.90;;;;;;5029466;28;20087;-48
2024/02/23 08:29:15;;;;;;;6.32;2.20;;;6.60;99.90;;;;;;5028181;28;20045;-49
2024/02/23 08:31:42;;;;;;;7.95;2.72;;;6.70;99.90;;;;;;5032271;28;20041;-49
2024/02/23 08:34:09;;;;;;;6.72;1.90;;;6.80;99.90;;;;;;5023488;28;20129;-50
2024/02/23 08:36:36;;;;;;;5.22;2.05;;;6.90;99.90;;;;;;5025780;28;20526;-50
2024/02/23 08:39:04;;;;;;;4.50;1.88;;;7.00;99.90;;;;;;5024157;28;20037;-46
2024/02/23 08:41:31;;;;;;;2.92;1.88;;;7.00;99.90;;;;;;5024802;28;20057;-49
2024/02/23 08:43:58;;;;;;;3.90;2.00;;;7.20;99.90;;;;;;5025887;28;20543;-47
2024/02/23 08:46:25;;;;;;;3.33;1.98;;;7.20;99.90;;;;;;5025626;28;20207;-45
2024/02/23 08:48:52;;;;;;;3.53;1.70;;;7.30;99.90;;;;;;5027192;28;20122;-47
2024/02/23 08:51:19;;;;;;;6.57;2.15;;;7.40;99.90;;;;;;5028105;28;20482;-45
2024/02/23 08:53:46;;;;;;;4.45;2.28;;;7.30;99.90;;;;;;5031302;28;20471;-50
2024/02/23 08:56:15;;;;;;;4.70;2.58;;;7.20;99.90;;;;;;5026258;28;20048;-48
2024/02/23 08:58:43;;;;;;;4.28;2.05;;;7.10;99.90;;;;;;5031705;28;20042;-49
2024/02/23 09:01:09;;;;;;;6.40;2.20;;;7.00;99.90;;;;;;5031827;28;20092;-54
2024/02/23 09:03:36;;;;;;;6.90;1.83;;;6.90;99.90;;;;;;5031846;28;20522;-47
2024/02/23 09:06:04;;;;;;;3.45;1.75;;;6.80;99.90;;;;;;5031544;28;20192;-50
2024/02/23 09:08:31;;;;;;;5.00;2.05;;;6.90;99.90;;;;;;5030582;28;20480;-47
2024/02/23 09:10:59;;;;;;;5.13;2.03;;;7.00;99.90;;;;;;5031350;28;20414;-46
2024/02/23 09:13:27;;;;;;;2.85;2.00;;;7.00;99.90;;;;;;5012521;28;20482;-46
2024/02/23 09:15:54;;;;;;;4.05;1.77;;;7.00;99.90;;;;;;5029892;28;20041;-50
2024/02/23 09:18:21;;;;;;;4.82;1.75;;;7.10;99.90;;;;;;5028362;28;20069;-49
2024/02/23 09:20:48;;;;;;;5.72;1.80;;;7.10;99.90;;;;;;5029652;28;20560;-44
2024/02/23 09:23:15;;;;;;;3.55;1.98;;;7.00;99.90;;;;;;5028631;28;20136;-46
2024/02/23 09:25:42;;;;;;;4.68;2.25;;;7.00;99.90;;;;;;5024406;28;20033;-48
2024/02/23 09:28:11;;;;;;;5.72;2.10;;;7.20;99.90;;;;;;5028835;28;20486;-48
2024/02/23 09:30:38;;;;;;;2.13;1.63;;;7.10;99.90;;;;;;5028427;28;20053;-47
2024/02/23 09:33:05;;;;;;;3.45;2.20;;;7.10;99.90;;;;;;5027624;28;20057;-47
2024/02/23 09:35:33;;;;;;;4.30;1.90;;;7.20;99.90;;;;;;5028637;28;20554;-46
2024/02/23 09:38:00;;;;;;;3.65;1.90;;;7.10;99.90;;;;;;5028729;28;20047;-51
2024/02/23 09:40:27;;;;;;;3.88;2.00;;;7.20;99.90;;;;;;5029914;28;20052;-43
2024/02/23 09:42:58;;;;;;;5.97;2.10;;;7.30;99.90;;;;;;5028481;28;20132;-43
2024/02/23 09:45:26;;;;;;;7.25;2.35;;;7.40;99.90;;;;;;5028467;28;20240;-51
2024/02/23 09:47:55;;;;;;;5.43;1.95;;;7.40;99.90;;;;;;5028876;28;20053;-49
2024/02/23 09:50:23;;;;;;;3.95;2.03;;;7.40;99.90;;;;;;5027662;28;20053;-49
2024/02/23 09:52:51;;;;;;;4.68;2.20;;;7.30;99.90;;;;;;5030075;28;20049;-49
2024/02/23 09:55:18;;;;;;;4.47;2.00;;;7.30;99.90;;;;;;5030542;28;20511;-49
2024/02/23 09:57:48;;;;;;;6.93;3.38;;;7.30;99.90;;;;;;5027536;28;20042;-50
2024/02/23 10:00:17;;;;;;;5.18;2.20;;;7.20;99.90;;;;;;5030021;28;20083;-50
2024/02/23 10:02:45;;;;;;;4.10;1.80;;;7.10;99.90;;;;;;5023119;28;20119;-51
2024/02/23 10:05:13;;;;;;;3.35;1.73;;;7.20;99.90;;;;;;5028022;28;20054;-52
2024/02/23 10:07:42;;;;;;;3.25;2.00;;;7.30;99.90;;;;;;5025102;28;20049;-49
2024/02/23 10:10:10;;;;;;;3.88;1.73;;;7.30;99.90;;;;;;5027614;28;20042;-53
2024/02/23 10:12:37;;;;;;;3.80;2.20;;;7.40;99.90;;;;;;5024695;28;20050;-52
2024/02/23 10:15:05;;;;;;;4.85;2.00;;;7.50;99.90;;;;;;5030172;28;20037;-51
2024/02/23 10:17:32;;;;;;;4.78;2.13;;;7.40;99.90;;;;;;5030044;28;20447;-48
2024/02/23 10:20:06;;;;;;;5.35;2.22;;;7.50;99.90;;;;;;5028263;28;20429;-52
2024/02/23 10:22:33;;;;;;;2.75;1.90;;;7.40;99.90;;;;;;5025263;28;20556;-48
2024/02/23 10:25:00;;;;;;;5.90;2.67;;;7.40;99.90;;;;;;5026206;28;20121;-51
2024/02/23 10:27:27;;;;;;;3.40;2.00;;;7.40;99.90;;;;;;5030685;28;20053;-54
2024/02/23 10:29:55;;;;;;;4.03;1.98;;;7.50;99.90;;;;;;5029793;28;20144;-49
2024/02/23 10:32:23;;;;;;;4.80;2.30;;;7.60;99.90;;;;;;5027760;28;20045;-49
2024/02/23 10:34:55;;;;;;;6.35;2.05;;;7.70;99.90;;;;;;5028763;28;20038;-49
2024/02/23 10:37:23;;;;;;;7.93;2.40;;;7.70;99.90;;;;;;5026617;28;20128;-46
2024/02/23 10:39:57;;;;;;;5.30;2.20;;;7.70;99.90;;;;;;5028631;28;20034;-46
2024/02/23 10:42:28;;;;;;;5.07;2.30;;;7.50;99.90;;;;;;5028356;28;20142;-49
2024/02/23 10:44:56;;;;;;;5.25;2.28;;;7.50;99.90;;;;;;5010171;28;20049;-45
2024/02/23 10:47:24;;;;;;;5.30;2.10;;;7.70;99.90;;;;;;5027237;28;20132;-51
2024/02/23 10:49:51;;;;;;;4.80;2.17;;;7.50;99.90;;;;;;5021633;28;20432;-44
2024/02/23 10:52:21;;;;;;;6.28;2.65;;;7.50;99.90;;;;;;5028473;28;20367;-48
2024/02/23 10:54:50;;;;;;;4.15;2.60;;;7.60;99.90;;;;;;5028692;28;20135;-44
2024/02/23 10:57:18;;;;;;;3.08;2.00;;;7.50;99.90;;;;;;5007672;28;20533;-48
2024/02/23 10:59:47;;;;;;;4.70;2.15;;;7.60;99.90;;;;;;5026040;28;20421;-50
2024/02/23 11:02:17;;;;;;;4.00;2.10;;;7.60;99.90;;;;;;5025781;28;20457;-48
2024/02/23 11:04:50;;;;;;;4.05;1.95;;;7.60;99.90;;;;;;5025856;28;20049;-50
2024/02/23 11:07:21;;;;;;;5.28;2.45;;;7.40;99.90;;;;;;5026486;28;20549;-50
2024/02/23 11:10:00;;;;;;;5.50;2.30;;;7.30;99.90;;;;;;5023019;28;20128;-46
2024/02/23 11:12:31;;;;;;;6.22;2.25;;;7.20;99.90;;;;;;5026959;28;20509;-46
2024/02/23 11:15:00;;;;;;;7.25;3.75;;;7.40;99.90;;;;;;5030817;28;20530;-48
2024/02/23 11:17:32;;;;;;;5.32;2.25;;;7.30;99.90;;;;;;5031982;28;20049;-44
2024/02/23 11:20:03;;;;;;;5.40;2.88;;;7.40;99.90;;;;;;5033334;28;20176;-47
2024/02/23 11:22:33;;;;;;;3.55;2.20;;;7.60;99.90;;;;;;5031083;28;20056;-51
2024/02/23 11:25:08;;;;;;;4.07;2.17;;;7.70;99.90;;;;;;5029257;28;20068;-50
2024/02/23 11:27:37;;;;;;;4.30;2.20;;;7.60;99.90;;;;;;5030693;28;20087;-56
2024/02/23 11:30:10;;;;;;;4.10;2.15;;;7.60;99.90;;;;;;5029337;28;20077;-44
2024/02/23 11:32:42;;;;;;;5.38;2.22;;;7.80;99.90;;;;;;5030318;28;20066;-53
2024/02/23 11:35:11;;;;;;;5.18;2.40;;;7.80;99.90;;;;;;5028295;28;20053;-49
2024/02/23 11:38:02;;;;;;;3.15;2.03;;;7.90;99.90;;;;;;5026666;28;20060;-51
2024/02/23 11:40:30;;;;;;;2.47;1.98;;;7.90;99.90;;;;;;5026716;28;20056;-54
2024/02/23 11:43:01;;;;;;;2.63;1.98;;;7.90;99.90;;;;;;5025046;28;20050;-52
2024/02/23 11:45:28;;;;;;;6.72;2.45;;;8.00;99.90;;;;;;5026098;28;20438;-48
2024/02/23 11:47:56;;;;;;;4.72;2.47;;;8.10;99.90;;;;;;5026893;28;20486;-48
2024/02/23 11:50:23;;;;;;;6.10;2.20;;;8.10;99.90;;;;;;5027760;28;20138;-52
2024/02/23 11:52:51;;;;;;;3.92;2.30;;;8.10;99.90;;;;;;5031680;28;20063;-45
2024/02/23 11:55:22;;;;;;;4.03;2.10;;;8.20;99.90;;;;;;5027135;28;20439;-48
2024/02/23 11:57:50;;;;;;;4.30;2.13;;;8.30;99.90;;;;;;5025888;28;20038;-52
2024/02/23 12:00:29;;;;;;;4.60;2.20;;;8.10;99.90;;;;;;5026693;28;20061;-50
2024/02/23 12:02:57;;;;;;;5.50;2.30;;;8.00;99.90;;;;;;5025413;28;20069;-52
2024/02/23 12:05:24;;;;;;;5.60;2.70;;;8.00;99.90;;;;;;5025634;28;20045;-53
2024/02/23 12:07:51;;;;;;;5.47;2.47;;;8.20;99.90;;;;;;5023720;28;20208;-44
2024/02/23 12:10:18;;;;;;;3.38;2.45;;;8.30;99.90;;;;;;5024558;28;20069;-53
2024/02/23 12:12:45;;;;;;;4.20;2.38;;;8.50;99.90;;;;;;5024866;28;20522;-47
2024/02/23 12:15:12;;;;;;;8.13;2.28;;;8.60;99.90;;;;;;5026967;28;20111;-54
2024/02/23 12:17:47;;;;;;;4.57;2.15;;;8.60;99.90;;;;;;5024213;28;20422;-48
2024/02/23 12:20:15;;;;;;;4.05;2.22;;;8.50;99.90;;;;;;5026214;28;20045;-52
2024/02/23 12:22:42;;;;;;;3.55;2.38;;;8.50;99.90;;;;;;5025116;28;20041;-51
2024/02/23 12:25:12;;;;;;;7.18;2.58;;;8.60;99.90;;;;;;5024103;28;20565;-48
2024/02/23 12:27:39;;;;;;;4.07;2.50;;;8.60;99.90;;;;;;5019488;28;20374;-51
2024/02/23 12:30:14;;;;;;;4.63;2.55;;;8.50;99.90;;;;;;5026382;28;20564;-53
2024/02/23 12:32:41;;;;;;;4.85;2.67;;;8.50;99.90;;;;;;5029228;28;20121;-49
2024/02/23 12:35:14;;;;;;;4.88;2.20;;;8.60;99.90;;;;;;5028521;28;20056;-52
2024/02/23 12:37:42;;;;;;;4.70;2.42;;;8.60;99.90;;;;;;5028963;28;20034;-49
2024/02/23 12:40:12;;;;;;;3.30;1.98;;;8.70;99.90;;;;;;5028097;28;20461;-48
2024/02/23 12:42:39;;;;;;;6.03;2.38;;;8.60;99.90;;;;;;5029615;28;20081;-48
2024/02/23 12:45:07;;;;;;;4.10;2.00;;;8.50;99.90;;;;;;5027673;28;20148;-45
2024/02/23 12:47:34;;;;;;;3.53;2.10;;;8.30;99.90;;;;;;5031382;28;20056;-49
2024/02/23 12:50:01;;;;;;;3.08;2.08;;;8.20;99.90;;;;;;5030730;28;20041;-53
2024/02/23 12:52:28;;;;;;;3.08;2.10;;;8.20;99.90;;;;;;5029795;28;20045;-48
2024/02/23 12:54:55;;;;;;;2.70;1.90;;;8.20;99.90;;;;;;5028847;28;20124;-45
2024/02/23 12:57:22;;;;;;;3.80;2.10;;;8.30;99.90;;;;;;5028571;28;20073;-54
2024/02/23 12:59:49;;;;;;;3.88;1.98;;;8.20;99.90;;;;;;5030112;28;20041;-47
2024/02/23 13:02:16;;;;;;;4.25;1.92;;;8.30;99.90;;;;;;5028229;28;20140;-47